createdAt,value
2023-01-13T00:03:58.746Z,0
2023-01-13T00:09:58.720Z,0
2023-01-13T00:15:58.815Z,0
2023-01-13T00:21:58.731Z,0
2023-01-13T00:27:58.713Z,0
2023-01-13T00:34:09.008Z,0
2023-01-13T00:39:58.722Z,0
2023-01-13T00:45:58.729Z,0
2023-01-13T00:51:58.701Z,0
2023-01-13T00:57:58.747Z,0
2023-01-13T01:03:58.694Z,0
2023-01-13T01:09:58.720Z,0
2023-01-13T01:15:58.783Z,0
2023-01-13T01:21:58.725Z,0
2023-01-13T01:27:58.700Z,0
2023-01-13T01:33:58.724Z,0
2023-01-13T01:39:58.839Z,0
2023-01-13T01:45:58.727Z,0
2023-01-13T02:09:58.714Z,0
2023-01-13T02:15:58.891Z,0
2023-01-13T02:21:58.689Z,0
2023-01-13T02:27:58.738Z,0
2023-01-13T02:33:58.730Z,0
2023-01-13T02:39:58.719Z,0
2023-01-13T02:45:58.763Z,0
2023-01-13T02:51:58.718Z,0
2023-01-13T02:57:58.706Z,0
2023-01-13T03:03:58.723Z,0
2023-01-13T03:09:58.682Z,0
2023-01-13T03:15:58.678Z,0
2023-01-13T03:21:58.717Z,0
2023-01-13T03:27:58.658Z,0
2023-01-13T03:33:58.668Z,0
2023-01-13T03:39:58.674Z,0
2023-01-13T03:45:58.735Z,0
2023-01-13T03:51:58.657Z,0
2023-01-13T03:57:58.701Z,0
2023-01-13T04:03:58.764Z,0
2023-01-13T04:10:00.277Z,0
2023-01-13T04:15:58.900Z,0
2023-01-13T04:21:58.703Z,0
2023-01-13T04:27:58.733Z,0
2023-01-13T04:33:58.674Z,0
2023-01-13T04:39:58.676Z,0
2023-01-13T04:45:58.720Z,0
2023-01-13T04:51:58.699Z,0
2023-01-13T04:57:58.676Z,0
2023-01-13T05:03:58.679Z,0
2023-01-13T05:09:58.728Z,0
2023-01-13T05:15:58.751Z,0
2023-01-13T05:21:58.677Z,0
2023-01-13T05:27:58.697Z,0
2023-01-13T05:33:58.678Z,0
2023-01-13T05:39:58.663Z,0
2023-01-13T05:45:58.689Z,0
2023-01-13T05:51:58.666Z,0
2023-01-13T05:57:58.682Z,0
2023-01-13T06:03:58.693Z,0
2023-01-13T06:09:58.668Z,0
2023-01-13T06:15:58.809Z,0.1
2023-01-13T06:21:58.700Z,0
2023-01-13T06:27:58.643Z,0.1
2023-01-13T06:33:58.643Z,0
2023-01-13T06:39:58.703Z,0
2023-01-13T06:45:58.665Z,0
2023-01-13T06:51:58.683Z,0
2023-01-13T06:57:58.698Z,0
2023-01-13T07:03:58.644Z,0
2023-01-13T07:09:58.652Z,0
2023-01-13T07:15:59.064Z,0
2023-01-13T07:21:58.655Z,0
2023-01-13T07:27:58.663Z,0
2023-01-13T07:33:58.664Z,0
2023-01-13T07:39:58.664Z,0
2023-01-13T07:45:58.816Z,0
2023-01-13T07:51:58.703Z,0
2023-01-13T07:57:58.663Z,0
2023-01-13T08:03:58.659Z,0
2023-01-13T08:09:58.665Z,0
2023-01-13T08:15:58.640Z,0
2023-01-13T08:21:58.654Z,0
2023-01-13T08:27:58.686Z,0
2023-01-13T08:33:58.641Z,0
2023-01-13T08:39:58.691Z,0
2023-01-13T08:45:58.755Z,0
2023-01-13T08:51:58.729Z,0
2023-01-13T08:58:14.090Z,0
2023-01-13T09:03:58.738Z,0
2023-01-13T09:09:58.625Z,0
2023-01-13T09:15:58.750Z,0
2023-01-13T09:21:58.670Z,0.3
2023-01-13T09:27:58.650Z,0.4
2023-01-13T09:33:58.658Z,1
2023-01-13T09:39:58.679Z,1.3
2023-01-13T09:45:58.761Z,1.2
2023-01-13T09:51:58.653Z,2
2023-01-13T09:57:58.669Z,2.9
2023-01-13T10:03:58.659Z,5.5
2023-01-13T10:09:58.669Z,5.8
2023-01-13T10:16:00.728Z,5.5
2023-01-13T10:21:58.646Z,3.9
2023-01-13T10:27:58.662Z,4
2023-01-13T10:33:58.670Z,4.3
2023-01-13T10:39:58.655Z,4.2
2023-01-13T10:45:58.670Z,3.8
2023-01-13T10:51:58.727Z,3.1
2023-01-13T10:57:58.652Z,3.3
2023-01-13T11:03:58.631Z,3.5
2023-01-13T11:09:58.663Z,4.2
2023-01-13T11:15:58.642Z,3.9
2023-01-13T11:21:58.640Z,3.3
2023-01-13T11:27:58.647Z,3.3
2023-01-13T11:33:58.640Z,3.5
2023-01-13T11:39:58.648Z,3.6
2023-01-13T11:45:58.683Z,3.7
2023-01-13T11:51:58.621Z,3.5
2023-01-13T11:57:58.644Z,3.6
2023-01-13T12:03:58.671Z,3.9
2023-01-13T12:09:58.634Z,4.5
2023-01-13T12:15:58.641Z,3.8
2023-01-13T12:21:58.638Z,3.9
2023-01-13T12:27:58.657Z,1
2023-01-13T12:33:58.633Z,0
2023-01-13T12:39:58.674Z,0
2023-01-13T12:45:58.723Z,0
2023-01-13T12:51:58.644Z,0.2
2023-01-13T12:57:58.677Z,0.7
2023-01-13T13:03:58.608Z,0.9
2023-01-13T13:09:58.637Z,1
2023-01-13T13:15:58.652Z,1.3
2023-01-13T13:21:58.645Z,1.3
2023-01-13T13:28:09.017Z,1.7
2023-01-13T13:33:58.648Z,1.8
2023-01-13T13:39:58.621Z,0.6
2023-01-13T13:45:58.683Z,0
2023-01-13T13:51:58.670Z,0
2023-01-13T13:57:58.641Z,0
2023-01-13T14:03:58.657Z,0
2023-01-13T14:09:58.623Z,0
2023-01-13T14:15:58.750Z,0
2023-01-13T14:21:58.561Z,0
2023-01-13T14:27:58.595Z,0
2023-01-13T14:33:58.548Z,0
2023-01-13T14:39:58.557Z,0
2023-01-13T14:45:58.666Z,0
2023-01-13T14:51:58.548Z,0
2023-01-13T14:57:58.534Z,0
2023-01-13T15:03:58.582Z,0
2023-01-13T15:09:58.516Z,0
2023-01-13T15:15:58.644Z,0
2023-01-13T15:21:58.643Z,0
2023-01-13T15:27:58.609Z,0
2023-01-13T15:33:58.947Z,0
2023-01-13T15:39:58.975Z,0
2023-01-13T15:45:58.536Z,0
2023-01-13T15:51:58.554Z,0
2023-01-13T15:57:58.576Z,0
2023-01-13T16:03:58.524Z,0
2023-01-13T16:09:58.547Z,0
2023-01-13T16:15:58.642Z,0
2023-01-13T16:21:58.565Z,0
2023-01-13T16:27:58.558Z,0
2023-01-13T16:33:58.627Z,0
2023-01-13T16:39:58.597Z,0
2023-01-13T16:45:58.612Z,0
2023-01-13T16:51:58.619Z,0
2023-01-13T16:57:58.622Z,0
2023-01-13T17:03:58.593Z,0
2023-01-13T17:09:58.641Z,0
2023-01-13T17:15:58.633Z,0
2023-01-13T17:21:58.596Z,0
2023-01-13T17:27:58.642Z,0
2023-01-13T17:33:58.585Z,0
2023-01-13T17:39:58.701Z,0
2023-01-13T17:45:58.684Z,0
2023-01-13T17:51:58.634Z,0
2023-01-13T17:57:58.576Z,0
2023-01-13T18:03:58.671Z,0
2023-01-13T18:09:58.693Z,0
2023-01-13T18:15:58.589Z,0
2023-01-13T18:21:58.626Z,0
2023-01-13T18:27:58.588Z,0
2023-01-13T18:33:58.600Z,0
2023-01-13T18:39:58.622Z,0
2023-01-13T18:45:58.659Z,0
2023-01-13T18:51:58.615Z,0
2023-01-13T18:57:58.618Z,0
2023-01-13T19:03:58.611Z,0
2023-01-13T19:09:58.591Z,0
2023-01-13T19:15:58.640Z,0
2023-01-13T19:21:58.604Z,0
2023-01-13T19:27:58.593Z,0
2023-01-13T19:33:58.616Z,0
2023-01-13T19:39:58.611Z,0
2023-01-13T19:45:58.618Z,0
2023-01-13T19:51:58.653Z,0
2023-01-13T19:57:58.609Z,0
2023-01-13T20:03:58.569Z,0
2023-01-13T20:09:58.605Z,0
2023-01-13T20:15:58.607Z,0
2023-01-13T20:21:58.568Z,0
2023-01-13T20:27:58.675Z,0
2023-01-13T20:33:58.580Z,0
2023-01-13T20:39:58.596Z,0
2023-01-13T20:45:58.617Z,0
2023-01-13T20:51:58.581Z,0
2023-01-13T20:57:58.587Z,0
2023-01-13T21:03:58.628Z,0
2023-01-13T21:09:58.607Z,0
2023-01-13T21:15:58.619Z,0
2023-01-13T21:21:58.621Z,0
2023-01-13T21:27:58.565Z,0
2023-01-13T21:33:58.580Z,0
2023-01-13T21:39:58.625Z,0
2023-01-13T21:45:58.645Z,0
2023-01-13T21:51:58.631Z,0
2023-01-13T21:57:58.620Z,0
2023-01-13T22:03:58.603Z,0
2023-01-13T22:09:58.592Z,0
2023-01-13T22:15:58.617Z,0
2023-01-13T22:21:58.574Z,0
2023-01-13T22:27:58.600Z,0
2023-01-13T22:33:58.613Z,0
2023-01-13T22:39:58.577Z,0
2023-01-13T22:45:58.653Z,0
2023-01-13T22:51:58.617Z,0
2023-01-13T22:57:58.611Z,0
2023-01-13T23:03:58.951Z,0
2023-01-13T23:09:58.633Z,0
2023-01-13T23:15:58.577Z,0
2023-01-13T23:21:58.608Z,0
2023-01-13T23:27:58.624Z,0
2023-01-13T23:33:58.608Z,0
2023-01-13T23:39:58.574Z,0
2023-01-13T23:45:58.628Z,0
2023-01-13T23:51:58.636Z,0
2023-01-13T23:57:58.591Z,0
